YPTN/KTR METAR and TAF weather

Enter ICAO airport designator
Station Type Date Time Source
YPTN METAR 2021/02/24 18:00 UTC NOAA

YPTN 241800Z AUTO 21003KT 9999 -RA OVC100 22/22 Q1007 RERA


Station Type Date Time Source
YPTN Decoded METAR 2021/02/24 18:00 UTC NOAA

Tindal / Katherine, Australia (YPTN) 14-26S 132-16E 109M
Feb 24, 2021 - 01:00 PM EST / 2021.02.24 1800 UTC
Wind: from the SSW (210 degrees) at 3 MPH (3 KT):0
Visibility: greater than 7 mile(s):0
Sky conditions: overcast
Weather: light rain
Temperature: 71 F (22 C)
Dew Point: 71 F (22 C)
Relative Humidity: 100%
Pressure (altimeter): 29.74 in. Hg (1007 hPa)
ob: YPTN 241800Z AUTO 21003KT 9999 -RA OVC100 22/22 Q1007 RERA
cycle: 18

Station Type Date Time Source
YPTN TAF 2021/02/24 17:06 UTC NOAA

TAF TAF
AMD YPTN 241704Z 2417/2518 31006KT 9999 SCT015
FM250100 24006KT 9999 SCT030
TEMPO 2418/2502 9999 BKN008 PROB30
TEMPO 2504/2514 VRB20G35KT 1000 TSRA BKN010 SCT025CB

Example: see airport list